sensor_id;sensor_type;location;lat;lon;timestamp;P1;durP1;ratioP1;P2;durP2;ratioP2
19343;SDS011;9808;52.402;16.678;2022-10-28T00:00:32;56.10;;;35.00;;
19343;SDS011;9808;52.402;16.678;2022-10-28T00:03:00;61.13;;;35.10;;
19343;SDS011;9808;52.402;16.678;2022-10-28T00:05:27;59.37;;;36.93;;
19343;SDS011;9808;52.402;16.678;2022-10-28T00:07:58;59.17;;;36.47;;
19343;SDS011;9808;52.402;16.678;2022-10-28T00:10:25;62.37;;;35.40;;
19343;SDS011;9808;52.402;16.678;2022-10-28T00:12:52;55.37;;;34.50;;
19343;SDS011;9808;52.402;16.678;2022-10-28T00:15:19;58.27;;;35.17;;
19343;SDS011;9808;52.402;16.678;2022-10-28T00:17:45;56.77;;;33.60;;
19343;SDS011;9808;52.402;16.678;2022-10-28T00:20:12;55.40;;;34.70;;
19343;SDS011;9808;52.402;16.678;2022-10-28T00:22:41;54.43;;;35.30;;
19343;SDS011;9808;52.402;16.678;2022-10-28T00:25:08;54.10;;;35.37;;
19343;SDS011;9808;52.402;16.678;2022-10-28T00:27:35;58.63;;;35.70;;
19343;SDS011;9808;52.402;16.678;2022-10-28T00:30:02;55.73;;;35.47;;
19343;SDS011;9808;52.402;16.678;2022-10-28T00:32:29;54.70;;;35.73;;
19343;SDS011;9808;52.402;16.678;2022-10-28T00:34:56;60.23;;;35.03;;
19343;SDS011;9808;52.402;16.678;2022-10-28T00:37:23;60.33;;;35.43;;
19343;SDS011;9808;52.402;16.678;2022-10-28T00:39:50;59.37;;;34.43;;
19343;SDS011;9808;52.402;16.678;2022-10-28T00:42:18;59.73;;;34.77;;
19343;SDS011;9808;52.402;16.678;2022-10-28T00:47:28;58.63;;;34.03;;
19343;SDS011;9808;52.402;16.678;2022-10-28T00:53:16;53.50;;;33.93;;
19343;SDS011;9808;52.402;16.678;2022-10-28T00:55:46;65.43;;;35.20;;
19343;SDS011;9808;52.402;16.678;2022-10-28T00:58:14;55.83;;;33.67;;
19343;SDS011;9808;52.402;16.678;2022-10-28T01:00:42;60.10;;;33.80;;
19343;SDS011;9808;52.402;16.678;2022-10-28T01:03:09;57.73;;;34.20;;
19343;SDS011;9808;52.402;16.678;2022-10-28T01:05:37;58.17;;;35.33;;
19343;SDS011;9808;52.402;16.678;2022-10-28T01:08:07;56.23;;;35.57;;
19343;SDS011;9808;52.402;16.678;2022-10-28T01:13:11;62.30;;;35.90;;
19343;SDS011;9808;52.402;16.678;2022-10-28T01:15:56;58.83;;;36.73;;
19343;SDS011;9808;52.402;16.678;2022-10-28T01:18:31;60.00;;;36.20;;
19343;SDS011;9808;52.402;16.678;2022-10-28T01:31:51;64.20;;;38.97;;
19343;SDS011;9808;52.402;16.678;2022-10-28T01:45:27;64.73;;;40.77;;
19343;SDS011;9808;52.402;16.678;2022-10-28T01:48:01;64.20;;;37.87;;
19343;SDS011;9808;52.402;16.678;2022-10-28T01:50:36;55.43;;;36.20;;
19343;SDS011;9808;52.402;16.678;2022-10-28T01:53:21;68.23;;;38.33;;
19343;SDS011;9808;52.402;16.678;2022-10-28T01:55:52;61.67;;;38.00;;
19343;SDS011;9808;52.402;16.678;2022-10-28T01:58:24;65.07;;;37.87;;
19343;SDS011;9808;52.402;16.678;2022-10-28T02:00:55;69.93;;;38.80;;
19343;SDS011;9808;52.402;16.678;2022-10-28T02:03:25;64.17;;;38.57;;
19343;SDS011;9808;52.402;16.678;2022-10-28T02:05:54;67.23;;;39.17;;
19343;SDS011;9808;52.402;16.678;2022-10-28T02:08:29;65.10;;;40.07;;
19343;SDS011;9808;52.402;16.678;2022-10-28T02:19:37;73.90;;;41.67;;
19343;SDS011;9808;52.402;16.678;2022-10-28T02:22:18;76.97;;;42.90;;
19343;SDS011;9808;52.402;16.678;2022-10-28T02:25:01;71.00;;;40.77;;
19343;SDS011;9808;52.402;16.678;2022-10-28T02:27:33;71.50;;;41.33;;
19343;SDS011;9808;52.402;16.678;2022-10-28T02:30:24;70.93;;;42.13;;
19343;SDS011;9808;52.402;16.678;2022-10-28T02:33:14;82.00;;;44.17;;
19343;SDS011;9808;52.402;16.678;2022-10-28T02:35:49;72.67;;;42.73;;
19343;SDS011;9808;52.402;16.678;2022-10-28T02:38:33;72.23;;;42.50;;
19343;SDS011;9808;52.402;16.678;2022-10-28T02:41:10;82.03;;;43.67;;
19343;SDS011;9808;52.402;16.678;2022-10-28T02:43:46;83.77;;;46.43;;
19343;SDS011;9808;52.402;16.678;2022-10-28T02:46:19;85.00;;;46.73;;
19343;SDS011;9808;52.402;16.678;2022-10-28T02:48:50;80.67;;;45.73;;
19343;SDS011;9808;52.402;16.678;2022-10-28T02:51:23;72.53;;;44.13;;
19343;SDS011;9808;52.402;16.678;2022-10-28T02:53:58;82.70;;;45.77;;
19343;SDS011;9808;52.402;16.678;2022-10-28T02:56:30;89.00;;;46.47;;
19343;SDS011;9808;52.402;16.678;2022-10-28T02:59:01;77.03;;;44.27;;
19343;SDS011;9808;52.402;16.678;2022-10-28T03:01:28;85.33;;;45.93;;
19343;SDS011;9808;52.402;16.678;2022-10-28T03:03:55;86.90;;;44.47;;
19343;SDS011;9808;52.402;16.678;2022-10-28T03:06:22;84.53;;;45.13;;
19343;SDS011;9808;52.402;16.678;2022-10-28T03:08:54;82.60;;;43.43;;
19343;SDS011;9808;52.402;16.678;2022-10-28T03:11:20;85.17;;;43.70;;
19343;SDS011;9808;52.402;16.678;2022-10-28T03:13:47;77.87;;;44.53;;
19343;SDS011;9808;52.402;16.678;2022-10-28T03:16:14;74.40;;;42.67;;
19343;SDS011;9808;52.402;16.678;2022-10-28T03:18:41;79.70;;;43.53;;
19343;SDS011;9808;52.402;16.678;2022-10-28T03:21:08;75.10;;;43.97;;
19343;SDS011;9808;52.402;16.678;2022-10-28T03:23:34;71.17;;;42.00;;
19343;SDS011;9808;52.402;16.678;2022-10-28T03:26:01;71.40;;;41.93;;
19343;SDS011;9808;52.402;16.678;2022-10-28T03:28:28;70.07;;;40.30;;
19343;SDS011;9808;52.402;16.678;2022-10-28T03:30:55;70.20;;;40.93;;
19343;SDS011;9808;52.402;16.678;2022-10-28T03:33:21;73.67;;;42.50;;
19343;SDS011;9808;52.402;16.678;2022-10-28T03:35:48;66.63;;;39.77;;
19343;SDS011;9808;52.402;16.678;2022-10-28T03:38:15;73.07;;;40.63;;
19343;SDS011;9808;52.402;16.678;2022-10-28T03:40:42;70.10;;;40.70;;
19343;SDS011;9808;52.402;16.678;2022-10-28T03:43:08;67.60;;;40.73;;
19343;SDS011;9808;52.402;16.678;2022-10-28T03:45:35;67.13;;;40.23;;
19343;SDS011;9808;52.402;16.678;2022-10-28T03:48:02;65.30;;;40.80;;
19343;SDS011;9808;52.402;16.678;2022-10-28T03:50:29;65.83;;;38.87;;
19343;SDS011;9808;52.402;16.678;2022-10-28T03:52:55;60.23;;;38.47;;
19343;SDS011;9808;52.402;16.678;2022-10-28T03:55:22;67.93;;;39.07;;
19343;SDS011;9808;52.402;16.678;2022-10-28T03:57:51;63.57;;;39.23;;
19343;SDS011;9808;52.402;16.678;2022-10-28T04:00:18;66.17;;;36.77;;
19343;SDS011;9808;52.402;16.678;2022-10-28T04:02:49;60.03;;;38.17;;
19343;SDS011;9808;52.402;16.678;2022-10-28T04:05:17;66.33;;;38.60;;
19343;SDS011;9808;52.402;16.678;2022-10-28T04:07:45;58.10;;;38.00;;
19343;SDS011;9808;52.402;16.678;2022-10-28T04:10:12;61.37;;;37.93;;
19343;SDS011;9808;52.402;16.678;2022-10-28T04:12:39;67.63;;;37.17;;
19343;SDS011;9808;52.402;16.678;2022-10-28T04:15:06;63.00;;;37.40;;
19343;SDS011;9808;52.402;16.678;2022-10-28T04:17:33;66.17;;;38.90;;
19343;SDS011;9808;52.402;16.678;2022-10-28T04:20:00;62.50;;;38.43;;
19343;SDS011;9808;52.402;16.678;2022-10-28T04:22:27;62.63;;;37.40;;
19343;SDS011;9808;52.402;16.678;2022-10-28T04:24:54;58.57;;;36.77;;
19343;SDS011;9808;52.402;16.678;2022-10-28T04:27:21;59.97;;;37.23;;
19343;SDS011;9808;52.402;16.678;2022-10-28T04:29:48;63.77;;;37.03;;
19343;SDS011;9808;52.402;16.678;2022-10-28T04:32:14;58.87;;;35.90;;
19343;SDS011;9808;52.402;16.678;2022-10-28T04:34:41;57.03;;;34.87;;
19343;SDS011;9808;52.402;16.678;2022-10-28T04:37:08;59.57;;;35.20;;
19343;SDS011;9808;52.402;16.678;2022-10-28T04:39:35;52.83;;;34.13;;
19343;SDS011;9808;52.402;16.678;2022-10-28T04:42:01;57.90;;;35.20;;
19343;SDS011;9808;52.402;16.678;2022-10-28T04:44:28;57.33;;;35.20;;
19343;SDS011;9808;52.402;16.678;2022-10-28T04:46:55;56.23;;;35.00;;
19343;SDS011;9808;52.402;16.678;2022-10-28T04:49:22;58.47;;;35.60;;
19343;SDS011;9808;52.402;16.678;2022-10-28T04:51:48;55.57;;;36.23;;
19343;SDS011;9808;52.402;16.678;2022-10-28T04:54:15;56.53;;;35.90;;
19343;SDS011;9808;52.402;16.678;2022-10-28T04:56:42;56.10;;;34.03;;
19343;SDS011;9808;52.402;16.678;2022-10-28T04:59:09;53.43;;;33.83;;
19343;SDS011;9808;52.402;16.678;2022-10-28T05:01:36;57.47;;;34.00;;
19343;SDS011;9808;52.402;16.678;2022-10-28T05:04:03;52.50;;;33.23;;
19343;SDS011;9808;52.402;16.678;2022-10-28T05:06:30;59.73;;;34.03;;
19343;SDS011;9808;52.402;16.678;2022-10-28T05:08:56;55.83;;;33.80;;
19343;SDS011;9808;52.402;16.678;2022-10-28T05:11:23;53.70;;;33.27;;
19343;SDS011;9808;52.402;16.678;2022-10-28T05:13:50;54.90;;;32.90;;
19343;SDS011;9808;52.402;16.678;2022-10-28T05:16:18;53.73;;;33.33;;
19343;SDS011;9808;52.402;16.678;2022-10-28T05:18:45;48.70;;;31.70;;
19343;SDS011;9808;52.402;16.678;2022-10-28T05:21:12;52.13;;;33.03;;
19343;SDS011;9808;52.402;16.678;2022-10-28T05:23:39;54.97;;;33.43;;
19343;SDS011;9808;52.402;16.678;2022-10-28T05:26:06;49.87;;;31.97;;
19343;SDS011;9808;52.402;16.678;2022-10-28T05:28:33;49.77;;;30.90;;
19343;SDS011;9808;52.402;16.678;2022-10-28T05:30:59;48.93;;;29.87;;
19343;SDS011;9808;52.402;16.678;2022-10-28T05:33:26;49.40;;;30.47;;
19343;SDS011;9808;52.402;16.678;2022-10-28T05:35:53;45.23;;;29.43;;
19343;SDS011;9808;52.402;16.678;2022-10-28T05:38:21;45.20;;;29.90;;
19343;SDS011;9808;52.402;16.678;2022-10-28T05:40:48;47.10;;;30.57;;
19343;SDS011;9808;52.402;16.678;2022-10-28T05:43:14;47.53;;;30.47;;
19343;SDS011;9808;52.402;16.678;2022-10-28T05:45:41;42.77;;;28.77;;
19343;SDS011;9808;52.402;16.678;2022-10-28T05:48:08;45.53;;;28.70;;
19343;SDS011;9808;52.402;16.678;2022-10-28T05:50:35;44.23;;;28.90;;
19343;SDS011;9808;52.402;16.678;2022-10-28T05:53:01;39.47;;;27.43;;
19343;SDS011;9808;52.402;16.678;2022-10-28T05:55:28;45.87;;;28.67;;
19343;SDS011;9808;52.402;16.678;2022-10-28T05:57:56;45.93;;;29.67;;
19343;SDS011;9808;52.402;16.678;2022-10-28T06:00:24;40.40;;;27.80;;
19343;SDS011;9808;52.402;16.678;2022-10-28T06:02:52;45.40;;;28.63;;
19343;SDS011;9808;52.402;16.678;2022-10-28T06:05:26;41.97;;;27.93;;
19343;SDS011;9808;52.402;16.678;2022-10-28T06:07:53;46.13;;;28.40;;
19343;SDS011;9808;52.402;16.678;2022-10-28T06:10:19;45.23;;;28.83;;
19343;SDS011;9808;52.402;16.678;2022-10-28T06:12:46;43.60;;;28.23;;
19343;SDS011;9808;52.402;16.678;2022-10-28T06:15:13;49.03;;;28.73;;
19343;SDS011;9808;52.402;16.678;2022-10-28T06:17:39;45.07;;;27.87;;
19343;SDS011;9808;52.402;16.678;2022-10-28T06:20:06;40.07;;;26.63;;
19343;SDS011;9808;52.402;16.678;2022-10-28T06:22:33;40.60;;;26.67;;
19343;SDS011;9808;52.402;16.678;2022-10-28T06:25:00;42.93;;;26.50;;
19343;SDS011;9808;52.402;16.678;2022-10-28T06:27:27;44.63;;;27.07;;
19343;SDS011;9808;52.402;16.678;2022-10-28T06:29:54;44.90;;;27.87;;
19343;SDS011;9808;52.402;16.678;2022-10-28T06:32:20;42.03;;;26.10;;
19343;SDS011;9808;52.402;16.678;2022-10-28T06:34:47;46.33;;;27.40;;
19343;SDS011;9808;52.402;16.678;2022-10-28T06:37:14;49.83;;;28.67;;
19343;SDS011;9808;52.402;16.678;2022-10-28T06:39:40;50.60;;;28.63;;
19343;SDS011;9808;52.402;16.678;2022-10-28T06:42:08;42.67;;;28.10;;
19343;SDS011;9808;52.402;16.678;2022-10-28T06:44:35;48.07;;;28.40;;
19343;SDS011;9808;52.402;16.678;2022-10-28T06:47:02;46.77;;;29.30;;
19343;SDS011;9808;52.402;16.678;2022-10-28T06:49:29;48.03;;;28.03;;
19343;SDS011;9808;52.402;16.678;2022-10-28T06:51:55;48.83;;;29.17;;
19343;SDS011;9808;52.402;16.678;2022-10-28T06:54:22;52.23;;;29.93;;
19343;SDS011;9808;52.402;16.678;2022-10-28T06:56:49;47.07;;;29.70;;
19343;SDS011;9808;52.402;16.678;2022-10-28T06:59:16;46.70;;;28.57;;
19343;SDS011;9808;52.402;16.678;2022-10-28T07:01:42;51.07;;;29.03;;
19343;SDS011;9808;52.402;16.678;2022-10-28T07:04:10;41.90;;;27.20;;
19343;SDS011;9808;52.402;16.678;2022-10-28T07:06:40;49.63;;;27.30;;
19343;SDS011;9808;52.402;16.678;2022-10-28T07:09:08;44.53;;;27.13;;
19343;SDS011;9808;52.402;16.678;2022-10-28T07:11:39;45.73;;;27.73;;
19343;SDS011;9808;52.402;16.678;2022-10-28T07:14:08;52.53;;;27.53;;
19343;SDS011;9808;52.402;16.678;2022-10-28T07:16:36;53.53;;;27.90;;
19343;SDS011;9808;52.402;16.678;2022-10-28T07:19:02;50.33;;;28.53;;
19343;SDS011;9808;52.402;16.678;2022-10-28T07:21:29;44.27;;;26.87;;
19343;SDS011;9808;52.402;16.678;2022-10-28T07:23:56;46.57;;;27.37;;
19343;SDS011;9808;52.402;16.678;2022-10-28T07:26:23;50.23;;;27.57;;
19343;SDS011;9808;52.402;16.678;2022-10-28T07:28:50;46.17;;;27.50;;
19343;SDS011;9808;52.402;16.678;2022-10-28T07:31:17;46.57;;;26.80;;
19343;SDS011;9808;52.402;16.678;2022-10-28T07:33:44;48.00;;;26.97;;
19343;SDS011;9808;52.402;16.678;2022-10-28T07:36:17;40.10;;;25.17;;
19343;SDS011;9808;52.402;16.678;2022-10-28T07:38:43;43.20;;;24.27;;
19343;SDS011;9808;52.402;16.678;2022-10-28T07:41:15;44.20;;;25.03;;
19343;SDS011;9808;52.402;16.678;2022-10-28T07:43:41;43.40;;;25.33;;
19343;SDS011;9808;52.402;16.678;2022-10-28T07:46:08;44.10;;;24.67;;
19343;SDS011;9808;52.402;16.678;2022-10-28T07:48:35;43.13;;;24.03;;
19343;SDS011;9808;52.402;16.678;2022-10-28T07:51:03;48.13;;;24.60;;
19343;SDS011;9808;52.402;16.678;2022-10-28T07:53:31;44.50;;;25.27;;
19343;SDS011;9808;52.402;16.678;2022-10-28T07:56:03;44.27;;;24.47;;
19343;SDS011;9808;52.402;16.678;2022-10-28T07:58:31;43.63;;;24.60;;
19343;SDS011;9808;52.402;16.678;2022-10-28T08:01:02;43.13;;;25.53;;
19343;SDS011;9808;52.402;16.678;2022-10-28T08:03:30;44.67;;;24.67;;
19343;SDS011;9808;52.402;16.678;2022-10-28T08:06:05;41.53;;;24.73;;
19343;SDS011;9808;52.402;16.678;2022-10-28T08:08:46;41.63;;;23.57;;
19343;SDS011;9808;52.402;16.678;2022-10-28T08:11:18;38.27;;;23.60;;
19343;SDS011;9808;52.402;16.678;2022-10-28T08:13:47;43.03;;;24.80;;
19343;SDS011;9808;52.402;16.678;2022-10-28T08:16:15;42.53;;;24.93;;
19343;SDS011;9808;52.402;16.678;2022-10-28T08:18:42;50.17;;;25.27;;
19343;SDS011;9808;52.402;16.678;2022-10-28T08:21:11;44.43;;;25.53;;
19343;SDS011;9808;52.402;16.678;2022-10-28T08:23:38;43.30;;;24.00;;
19343;SDS011;9808;52.402;16.678;2022-10-28T08:26:06;39.27;;;23.97;;
19343;SDS011;9808;52.402;16.678;2022-10-28T08:28:33;37.72;;;22.77;;
19343;SDS011;9808;52.402;16.678;2022-10-28T08:31:00;40.70;;;22.93;;
19343;SDS011;9808;52.402;16.678;2022-10-28T08:33:37;41.30;;;22.57;;
19343;SDS011;9808;52.402;16.678;2022-10-28T08:36:06;33.13;;;20.87;;
19343;SDS011;9808;52.402;16.678;2022-10-28T08:38:34;29.37;;;19.87;;
19343;SDS011;9808;52.402;16.678;2022-10-28T08:41:04;31.07;;;20.33;;
19343;SDS011;9808;52.402;16.678;2022-10-28T08:46:49;23.40;;;16.53;;
19343;SDS011;9808;52.402;16.678;2022-10-28T08:49:22;24.38;;;16.15;;
19343;SDS011;9808;52.402;16.678;2022-10-28T08:54:26;21.88;;;15.52;;
19343;SDS011;9808;52.402;16.678;2022-10-28T08:56:56;26.58;;;16.10;;
19343;SDS011;9808;52.402;16.678;2022-10-28T08:59:30;24.08;;;14.93;;
19343;SDS011;9808;52.402;16.678;2022-10-28T09:02:00;22.98;;;14.10;;
19343;SDS011;9808;52.402;16.678;2022-10-28T09:04:40;19.67;;;13.80;;
19343;SDS011;9808;52.402;16.678;2022-10-28T09:07:12;22.90;;;14.02;;
19343;SDS011;9808;52.402;16.678;2022-10-28T09:09:43;22.17;;;14.57;;
19343;SDS011;9808;52.402;16.678;2022-10-28T09:22:54;20.48;;;13.20;;
19343;SDS011;9808;52.402;16.678;2022-10-28T09:34:24;24.48;;;13.50;;
19343;SDS011;9808;52.402;16.678;2022-10-28T09:42:39;24.85;;;13.20;;
19343;SDS011;9808;52.402;16.678;2022-10-28T09:45:26;23.27;;;11.73;;
19343;SDS011;9808;52.402;16.678;2022-10-28T09:48:04;24.48;;;12.07;;
19343;SDS011;9808;52.402;16.678;2022-10-28T09:50:39;19.50;;;12.55;;
19343;SDS011;9808;52.402;16.678;2022-10-28T09:55:51;18.67;;;11.73;;
19343;SDS011;9808;52.402;16.678;2022-10-28T09:58:18;20.08;;;10.93;;
19343;SDS011;9808;52.402;16.678;2022-10-28T10:00:45;20.98;;;11.70;;
19343;SDS011;9808;52.402;16.678;2022-10-28T10:03:12;21.85;;;11.32;;
19343;SDS011;9808;52.402;16.678;2022-10-28T10:05:48;16.65;;;10.40;;
19343;SDS011;9808;52.402;16.678;2022-10-28T10:08:19;17.70;;;10.05;;
19343;SDS011;9808;52.402;16.678;2022-10-28T10:13:52;22.80;;;10.88;;
19343;SDS011;9808;52.402;16.678;2022-10-28T10:19:09;17.73;;;10.50;;
19343;SDS011;9808;52.402;16.678;2022-10-28T10:21:47;17.48;;;10.85;;
19343;SDS011;9808;52.402;16.678;2022-10-28T10:24:27;20.58;;;10.75;;
19343;SDS011;9808;52.402;16.678;2022-10-28T10:27:00;16.55;;;10.23;;
19343;SDS011;9808;52.402;16.678;2022-10-28T10:29:29;19.70;;;10.35;;
19343;SDS011;9808;52.402;16.678;2022-10-28T10:32:04;17.58;;;10.50;;
19343;SDS011;9808;52.402;16.678;2022-10-28T10:34:37;18.23;;;10.02;;
19343;SDS011;9808;52.402;16.678;2022-10-28T10:37:18;21.20;;;10.50;;
19343;SDS011;9808;52.402;16.678;2022-10-28T10:40:00;22.23;;;9.93;;
19343;SDS011;9808;52.402;16.678;2022-10-28T10:42:31;18.85;;;9.88;;
19343;SDS011;9808;52.402;16.678;2022-10-28T10:47:41;17.92;;;9.52;;
19343;SDS011;9808;52.402;16.678;2022-10-28T10:50:12;20.35;;;10.35;;
19343;SDS011;9808;52.402;16.678;2022-10-28T10:52:50;17.80;;;9.63;;
19343;SDS011;9808;52.402;16.678;2022-10-28T10:57:55;17.17;;;10.02;;
19343;SDS011;9808;52.402;16.678;2022-10-28T11:00:23;17.65;;;9.88;;
19343;SDS011;9808;52.402;16.678;2022-10-28T11:02:56;26.98;;;10.35;;
19343;SDS011;9808;52.402;16.678;2022-10-28T11:05:24;16.13;;;9.57;;
19343;SDS011;9808;52.402;16.678;2022-10-28T11:08:03;19.33;;;10.77;;
19343;SDS011;9808;52.402;16.678;2022-10-28T11:10:31;19.52;;;10.15;;
19343;SDS011;9808;52.402;16.678;2022-10-28T11:13:04;17.63;;;10.77;;
19343;SDS011;9808;52.402;16.678;2022-10-28T11:16:05;24.13;;;10.85;;
19343;SDS011;9808;52.402;16.678;2022-10-28T11:18:44;20.30;;;10.93;;
19343;SDS011;9808;52.402;16.678;2022-10-28T11:23:57;19.15;;;11.20;;
19343;SDS011;9808;52.402;16.678;2022-10-28T11:29:57;16.35;;;10.32;;
19343;SDS011;9808;52.402;16.678;2022-10-28T11:32:34;19.10;;;10.13;;
19343;SDS011;9808;52.402;16.678;2022-10-28T11:35:45;18.58;;;10.07;;
19343;SDS011;9808;52.402;16.678;2022-10-28T11:41:27;20.20;;;10.55;;
19343;SDS011;9808;52.402;16.678;2022-10-28T11:44:02;20.15;;;10.07;;
19343;SDS011;9808;52.402;16.678;2022-10-28T11:49:55;23.33;;;9.68;;
19343;SDS011;9808;52.402;16.678;2022-10-28T11:52:47;19.02;;;9.80;;
19343;SDS011;9808;52.402;16.678;2022-10-28T11:58:46;17.42;;;10.00;;
19343;SDS011;9808;52.402;16.678;2022-10-28T12:04:42;27.02;;;8.63;;
19343;SDS011;9808;52.402;16.678;2022-10-28T12:10:18;15.15;;;8.25;;
19343;SDS011;9808;52.402;16.678;2022-10-28T12:15:50;23.02;;;7.22;;
19343;SDS011;9808;52.402;16.678;2022-10-28T12:23:51;13.48;;;6.82;;
19343;SDS011;9808;52.402;16.678;2022-10-28T12:26:19;26.27;;;7.13;;
19343;SDS011;9808;52.402;16.678;2022-10-28T12:28:54;17.90;;;6.95;;
19343;SDS011;9808;52.402;16.678;2022-10-28T12:31:24;15.88;;;7.10;;
19343;SDS011;9808;52.402;16.678;2022-10-28T12:33:57;16.25;;;6.47;;
19343;SDS011;9808;52.402;16.678;2022-10-28T12:36:46;17.48;;;7.38;;
19343;SDS011;9808;52.402;16.678;2022-10-28T12:44:36;13.23;;;6.28;;
19343;SDS011;9808;52.402;16.678;2022-10-28T12:55:17;13.25;;;5.70;;
19343;SDS011;9808;52.402;16.678;2022-10-28T13:00:50;18.35;;;7.25;;
19343;SDS011;9808;52.402;16.678;2022-10-28T13:03:21;15.73;;;7.03;;
19343;SDS011;9808;52.402;16.678;2022-10-28T13:16:55;12.05;;;5.63;;
19343;SDS011;9808;52.402;16.678;2022-10-28T13:27:43;14.95;;;5.47;;
19343;SDS011;9808;52.402;16.678;2022-10-28T13:30:17;13.30;;;5.40;;
19343;SDS011;9808;52.402;16.678;2022-10-28T13:32:58;17.10;;;5.28;;
19343;SDS011;9808;52.402;16.678;2022-10-28T13:35:29;15.43;;;5.20;;
19343;SDS011;9808;52.402;16.678;2022-10-28T13:37:57;12.75;;;5.72;;
19343;SDS011;9808;52.402;16.678;2022-10-28T13:42:59;13.32;;;4.88;;
19343;SDS011;9808;52.402;16.678;2022-10-28T13:45:46;10.98;;;4.85;;
19343;SDS011;9808;52.402;16.678;2022-10-28T13:53:39;16.30;;;6.00;;
19343;SDS011;9808;52.402;16.678;2022-10-28T14:01:46;15.00;;;6.05;;
19343;SDS011;9808;52.402;16.678;2022-10-28T14:04:52;12.02;;;5.85;;
19343;SDS011;9808;52.402;16.678;2022-10-28T14:07:21;13.57;;;6.38;;
19343;SDS011;9808;52.402;16.678;2022-10-28T14:10:10;14.63;;;6.80;;
19343;SDS011;9808;52.402;16.678;2022-10-28T14:12:47;16.88;;;7.40;;
19343;SDS011;9808;52.402;16.678;2022-10-28T14:44:02;19.50;;;9.13;;
19343;SDS011;9808;52.402;16.678;2022-10-28T14:47:00;19.08;;;9.27;;
19343;SDS011;9808;52.402;16.678;2022-10-28T14:49:33;26.52;;;13.90;;
19343;SDS011;9808;52.402;16.678;2022-10-28T14:52:03;29.55;;;14.55;;
19343;SDS011;9808;52.402;16.678;2022-10-28T14:54:43;24.17;;;12.30;;
19343;SDS011;9808;52.402;16.678;2022-10-28T14:57:15;28.95;;;14.70;;
19343;SDS011;9808;52.402;16.678;2022-10-28T14:59:47;24.77;;;13.00;;
19343;SDS011;9808;52.402;16.678;2022-10-28T15:02:17;25.05;;;11.80;;
19343;SDS011;9808;52.402;16.678;2022-10-28T15:07:46;31.00;;;10.23;;
19343;SDS011;9808;52.402;16.678;2022-10-28T15:10:17;22.13;;;10.27;;
19343;SDS011;9808;52.402;16.678;2022-10-28T15:12:48;19.52;;;11.52;;
19343;SDS011;9808;52.402;16.678;2022-10-28T15:15:20;19.58;;;11.55;;
19343;SDS011;9808;52.402;16.678;2022-10-28T15:17:51;17.00;;;10.00;;
19343;SDS011;9808;52.402;16.678;2022-10-28T15:20:23;25.42;;;11.80;;
19343;SDS011;9808;52.402;16.678;2022-10-28T15:23:11;16.77;;;10.90;;
19343;SDS011;9808;52.402;16.678;2022-10-28T15:25:40;26.92;;;14.68;;
19343;SDS011;9808;52.402;16.678;2022-10-28T15:28:08;26.58;;;12.13;;
19343;SDS011;9808;52.402;16.678;2022-10-28T15:30:38;23.33;;;11.93;;
19343;SDS011;9808;52.402;16.678;2022-10-28T15:33:19;18.60;;;11.35;;
19343;SDS011;9808;52.402;16.678;2022-10-28T15:35:53;22.77;;;13.07;;
19343;SDS011;9808;52.402;16.678;2022-10-28T15:38:44;31.40;;;18.67;;
19343;SDS011;9808;52.402;16.678;2022-10-28T15:43:53;38.42;;;18.58;;
19343;SDS011;9808;52.402;16.678;2022-10-28T15:46:25;34.17;;;19.73;;
19343;SDS011;9808;52.402;16.678;2022-10-28T15:48:53;29.48;;;18.42;;
19343;SDS011;9808;52.402;16.678;2022-10-28T15:51:22;28.98;;;16.60;;
19343;SDS011;9808;52.402;16.678;2022-10-28T15:54:32;37.42;;;20.65;;
19343;SDS011;9808;52.402;16.678;2022-10-28T15:56:54;35.58;;;22.30;;
19343;SDS011;9808;52.402;16.678;2022-10-28T15:59:23;33.63;;;18.98;;
19343;SDS011;9808;52.402;16.678;2022-10-28T16:01:50;30.02;;;16.50;;
19343;SDS011;9808;52.402;16.678;2022-10-28T16:06:48;27.38;;;13.50;;
19343;SDS011;9808;52.402;16.678;2022-10-28T16:12:00;34.58;;;17.50;;
19343;SDS011;9808;52.402;16.678;2022-10-28T16:14:43;32.15;;;16.30;;
19343;SDS011;9808;52.402;16.678;2022-10-28T16:17:18;35.45;;;15.88;;
19343;SDS011;9808;52.402;16.678;2022-10-28T16:19:50;26.08;;;13.65;;
19343;SDS011;9808;52.402;16.678;2022-10-28T16:22:21;23.00;;;12.48;;
19343;SDS011;9808;52.402;16.678;2022-10-28T16:24:50;23.65;;;12.32;;
19343;SDS011;9808;52.402;16.678;2022-10-28T16:29:49;34.13;;;21.15;;
19343;SDS011;9808;52.402;16.678;2022-10-28T16:32:23;39.97;;;24.55;;
19343;SDS011;9808;52.402;16.678;2022-10-28T16:34:52;43.28;;;23.40;;
19343;SDS011;9808;52.402;16.678;2022-10-28T16:37:24;26.85;;;15.75;;
19343;SDS011;9808;52.402;16.678;2022-10-28T16:39:53;39.58;;;24.48;;
19343;SDS011;9808;52.402;16.678;2022-10-28T16:42:20;52.97;;;32.10;;
19343;SDS011;9808;52.402;16.678;2022-10-28T16:44:48;50.83;;;33.17;;
19343;SDS011;9808;52.402;16.678;2022-10-28T16:47:17;55.83;;;36.92;;
19343;SDS011;9808;52.402;16.678;2022-10-28T16:49:44;55.67;;;39.92;;
19343;SDS011;9808;52.402;16.678;2022-10-28T16:52:22;55.65;;;37.15;;
19343;SDS011;9808;52.402;16.678;2022-10-28T16:54:53;50.42;;;32.03;;
19343;SDS011;9808;52.402;16.678;2022-10-28T16:57:20;53.88;;;33.47;;
19343;SDS011;9808;52.402;16.678;2022-10-28T16:59:52;42.42;;;29.65;;
19343;SDS011;9808;52.402;16.678;2022-10-28T17:02:26;88.22;;;51.22;;
19343;SDS011;9808;52.402;16.678;2022-10-28T17:04:56;77.05;;;46.80;;
19343;SDS011;9808;52.402;16.678;2022-10-28T17:07:24;59.65;;;36.72;;
19343;SDS011;9808;52.402;16.678;2022-10-28T17:09:52;49.17;;;31.13;;
19343;SDS011;9808;52.402;16.678;2022-10-28T17:12:20;44.13;;;27.73;;
19343;SDS011;9808;52.402;16.678;2022-10-28T17:14:49;50.22;;;32.97;;
19343;SDS011;9808;52.402;16.678;2022-10-28T17:17:16;53.33;;;33.13;;
19343;SDS011;9808;52.402;16.678;2022-10-28T17:19:43;46.05;;;29.27;;
19343;SDS011;9808;52.402;16.678;2022-10-28T17:22:11;54.13;;;28.13;;
19343;SDS011;9808;52.402;16.678;2022-10-28T17:24:39;44.70;;;25.58;;
19343;SDS011;9808;52.402;16.678;2022-10-28T17:27:05;47.78;;;26.30;;
19343;SDS011;9808;52.402;16.678;2022-10-28T17:29:33;59.25;;;31.40;;
19343;SDS011;9808;52.402;16.678;2022-10-28T17:31:59;49.60;;;27.95;;
19343;SDS011;9808;52.402;16.678;2022-10-28T17:34:27;65.63;;;32.08;;
19343;SDS011;9808;52.402;16.678;2022-10-28T17:36:54;63.72;;;32.70;;
19343;SDS011;9808;52.402;16.678;2022-10-28T17:39:21;52.90;;;29.95;;
19343;SDS011;9808;52.402;16.678;2022-10-28T17:41:51;47.78;;;27.35;;
19343;SDS011;9808;52.402;16.678;2022-10-28T17:44:18;45.25;;;25.52;;
19343;SDS011;9808;52.402;16.678;2022-10-28T17:46:48;44.78;;;24.90;;
19343;SDS011;9808;52.402;16.678;2022-10-28T17:49:16;41.58;;;23.83;;
19343;SDS011;9808;52.402;16.678;2022-10-28T17:51:43;47.92;;;25.67;;
19343;SDS011;9808;52.402;16.678;2022-10-28T17:54:10;46.95;;;25.23;;
19343;SDS011;9808;52.402;16.678;2022-10-28T17:56:37;47.75;;;26.30;;
19343;SDS011;9808;52.402;16.678;2022-10-28T17:59:07;47.28;;;25.50;;
19343;SDS011;9808;52.402;16.678;2022-10-28T18:01:33;40.45;;;24.73;;
19343;SDS011;9808;52.402;16.678;2022-10-28T18:04:01;46.35;;;25.23;;
19343;SDS011;9808;52.402;16.678;2022-10-28T18:06:31;51.47;;;27.70;;
19343;SDS011;9808;52.402;16.678;2022-10-28T18:08:58;53.88;;;30.98;;